Oakbrook, Washington
Current Conditions -  °F | °C
As of 11:09 PM on Wednesday 22 Oct 2014 (Local Time) from KTCM Reporting Station
Light Rain Light Rain  
Wind Chill: 13°   Ceiling: 9500
Heat Index: 13°   Visibility: 10mi
Dew Point: 10°   Wind: 14mph
Humidity: 82%   Direction: 180°S
Pressure: 29.7"   Gusts: NA
Location:  47.1809°N, 122.548°W
Report Text: KTCM 230609Z AUTO 18012KT 10SM -RA BKN095 13/10 A2970 RMK AO2
Loading
Personal Weather Stations






























Interactive Weather Map
Tropical Storm Tracking
New forecast layout! Learn more

10-Day Weather Forecast

Advertisements
Track Severe Weather on mobile